Time;durP1;ratioP1;P1;durP2;ratioP2;P2;SDS_P1;SDS_P2;PMS_P1;PMS_P2;Temp;Humidity;BMP_temperature;BMP_pressure;BME280_temperature;BME280_humidity;BME280_pressure;Samples;Min_cycle;Max_cycle;Signal;HPM_P1;HPM_P2
2024/01/13 00:00:31;;;;;;;34.67;21.10;;;;;;;-1.44;100.00;96919.88;5087295;28;20020;-70
2024/01/13 00:02:56;;;;;;;35.60;23.50;;;;;;;-1.47;100.00;96907.88;5087920;28;20610;-70
2024/01/13 00:05:22;;;;;;;35.33;22.05;;;;;;;-1.48;100.00;96911.34;5096416;28;20031;-70
2024/01/13 00:07:47;;;;;;;25.05;19.23;;;;;;;-1.48;100.00;96915.66;5077687;28;20489;-70
2024/01/13 00:10:12;;;;;;;28.20;19.98;;;;;;;-1.49;100.00;96909.63;5093189;28;20031;-70
2024/01/13 00:12:38;;;;;;;38.55;24.60;;;;;;;-1.47;100.00;96917.38;5082366;28;20035;-70
2024/01/13 00:15:04;;;;;;;31.98;22.80;;;;;;;-1.42;100.00;96918.09;5075031;28;20106;-70
2024/01/13 00:17:29;;;;;;;25.13;19.38;;;;;;;-1.40;100.00;96918.06;5096407;28;20024;-70
2024/01/13 00:19:54;;;;;;;25.00;18.88;;;;;;;-1.42;100.00;96920.69;5089607;28;20146;-70
2024/01/13 00:22:20;;;;;;;24.48;18.98;;;;;;;-1.45;100.00;96924.16;5082509;28;20048;-70
2024/01/13 00:24:45;;;;;;;25.67;19.63;;;;;;;-1.48;100.00;96919.09;5094845;28;20023;-70
2024/01/13 00:27:11;;;;;;;25.80;18.25;;;;;;;-1.47;100.00;96923.38;5082723;28;20439;-70
2024/01/13 00:29:37;;;;;;;23.77;18.50;;;;;;;-1.47;100.00;96914.78;5087282;28;20055;-70
2024/01/13 00:32:03;;;;;;;23.52;18.95;;;;;;;-1.45;100.00;96929.34;5083910;28;20020;-70
2024/01/13 00:34:28;;;;;;;24.88;18.65;;;;;;;-1.43;100.00;96921.56;5095970;28;20034;-70
2024/01/13 00:36:54;;;;;;;24.45;18.63;;;;;;;-1.38;100.00;96924.03;5088532;28;20025;-70
2024/01/13 00:39:19;;;;;;;24.73;18.65;;;;;;;-1.26;100.00;96918.56;5059431;28;20058;-70
2024/01/13 00:41:44;;;;;;;23.83;18.10;;;;;;;-1.26;100.00;96913.38;5084600;28;20032;-70
2024/01/13 00:44:10;;;;;;;22.27;17.45;;;;;;;-1.28;100.00;96910.00;5088730;28;20027;-69
2024/01/13 00:46:35;;;;;;;25.25;18.92;;;;;;;-1.30;100.00;96912.63;5094932;28;20099;-70
2024/01/13 00:49:01;;;;;;;25.48;18.10;;;;;;;-1.33;100.00;96922.19;5093340;28;20020;-70
2024/01/13 00:51:26;;;;;;;20.65;15.20;;;;;;;-1.41;100.00;96919.78;5081878;28;20034;-70
2024/01/13 00:53:52;;;;;;;20.95;15.98;;;;;;;-1.48;100.00;96919.09;5088292;28;20047;-70
2024/01/13 00:56:17;;;;;;;18.80;15.93;;;;;;;-1.51;100.00;96918.34;5082264;28;20059;-70
2024/01/13 00:58:42;;;;;;;19.65;15.23;;;;;;;-1.46;100.00;96922.47;5079182;28;20025;-69
2024/01/13 01:01:08;;;;;;;22.38;15.88;;;;;;;-1.50;100.00;96920.84;5078224;28;20397;-70
2024/01/13 01:03:33;;;;;;;17.98;14.43;;;;;;;-1.54;100.00;96916.66;5089615;28;20065;-70
2024/01/13 01:05:59;;;;;;;17.00;14.05;;;;;;;-1.54;100.00;96916.66;5063690;28;20033;-70
2024/01/13 01:08:25;;;;;;;17.83;14.73;;;;;;;-1.60;100.00;96911.66;5084837;28;20052;-70
2024/01/13 01:10:50;;;;;;;16.95;13.32;;;;;;;-1.64;100.00;96913.44;5089719;28;20089;-69
2024/01/13 01:13:16;;;;;;;16.67;13.35;;;;;;;-1.63;100.00;96909.16;5086862;28;20131;-70
2024/01/13 01:15:41;;;;;;;18.10;13.43;;;;;;;-1.62;100.00;96914.25;5084518;28;20027;-70
2024/01/13 01:18:06;;;;;;;17.67;13.73;;;;;;;-1.59;100.00;96923.69;5094747;28;20530;-70
2024/01/13 01:20:32;;;;;;;14.07;12.27;;;;;;;-1.57;100.00;96914.16;5087874;28;20057;-70
2024/01/13 01:22:57;;;;;;;15.75;13.32;;;;;;;-1.64;100.00;96912.63;5100580;28;20066;-70
2024/01/13 01:25:23;;;;;;;16.38;13.57;;;;;;;-1.69;100.00;96909.28;5096401;28;20040;-70
2024/01/13 01:27:48;;;;;;;18.90;13.60;;;;;;;-1.70;100.00;96913.59;5092780;28;20364;-70
2024/01/13 01:30:14;;;;;;;17.48;14.23;;;;;;;-1.66;100.00;96909.19;5089336;28;20539;-70
2024/01/13 01:32:39;;;;;;;16.02;13.05;;;;;;;-1.61;100.00;96907.38;5081193;28;20048;-70
2024/01/13 01:35:06;;;;;;;16.45;14.57;;;;;;;-1.61;100.00;96908.22;5088148;28;20024;-70
2024/01/13 01:37:32;;;;;;;22.10;14.90;;;;;;;-1.56;100.00;96909.81;5084798;28;20519;-70
2024/01/13 01:39:58;;;;;;;23.17;16.92;;;;;;;-1.59;100.00;96903.84;5089974;28;20044;-70
2024/01/13 01:42:23;;;;;;;24.35;17.67;;;;;;;-1.62;100.00;96901.34;5091096;28;20468;-70
2024/01/13 01:44:49;;;;;;;21.08;15.93;;;;;;;-1.55;100.00;96902.06;5072285;28;20407;-69
2024/01/13 01:47:15;;;;;;;24.65;17.83;;;;;;;-1.64;100.00;96899.72;5086392;28;20058;-70
2024/01/13 01:49:41;;;;;;;28.42;21.90;;;;;;;-1.63;100.00;96907.41;5078588;28;20035;-69
2024/01/13 01:52:06;;;;;;;32.65;22.30;;;;;;;-1.68;100.00;96908.38;5078246;28;20028;-70
2024/01/13 01:54:32;;;;;;;27.13;18.02;;;;;;;-1.60;100.00;96907.31;5083018;28;20035;-70
2024/01/13 01:56:58;;;;;;;35.10;23.75;;;;;;;-1.60;100.00;96909.06;5089299;28;20029;-70
2024/01/13 01:59:25;;;;;;;27.08;18.90;;;;;;;-1.66;100.00;96906.63;5096962;28;20032;-70
2024/01/13 02:01:51;;;;;;;22.20;16.52;;;;;;;-1.68;100.00;96909.25;5088522;28;20055;-70
2024/01/13 02:04:17;;;;;;;33.20;20.83;;;;;;;-1.65;100.00;96909.16;5082968;28;20060;-70
2024/01/13 02:06:42;;;;;;;27.17;19.38;;;;;;;-1.66;100.00;96898.88;5091962;28;20500;-70
2024/01/13 02:09:09;;;;;;;21.45;16.77;;;;;;;-1.65;100.00;96905.75;5096891;28;20096;-70
2024/01/13 02:11:34;;;;;;;32.20;21.35;;;;;;;-1.64;100.00;96910.03;5096420;28;20069;-70
2024/01/13 02:14:00;;;;;;;25.85;19.48;;;;;;;-1.70;100.00;96905.00;5083018;28;20764;-70
2024/01/13 02:16:26;;;;;;;31.80;23.88;;;;;;;-1.72;100.00;96899.88;5082472;28;20040;-70
2024/01/13 02:18:51;;;;;;;26.50;18.23;;;;;;;-1.67;100.00;96903.19;5071083;28;20408;-70
2024/01/13 02:21:17;;;;;;;23.70;16.40;;;;;;;-1.73;100.00;96908.53;5086440;28;20035;-70
2024/01/13 02:23:42;;;;;;;24.60;16.25;;;;;;;-1.72;100.00;96905.06;5093827;28;20023;-70
2024/01/13 02:26:07;;;;;;;21.50;17.88;;;;;;;-1.73;100.00;96905.94;5081740;28;20109;-70
2024/01/13 02:28:33;;;;;;;23.98;18.60;;;;;;;-1.76;100.00;96903.44;5080526;28;20393;-70
2024/01/13 02:30:59;;;;;;;23.23;17.00;;;;;;;-1.71;100.00;96899.00;5077596;28;20032;-70
2024/01/13 02:33:24;;;;;;;20.88;17.23;;;;;;;-1.70;100.00;96892.09;5081368;28;20055;-70
2024/01/13 02:35:49;;;;;;;26.17;19.55;;;;;;;-1.79;100.00;96894.00;5083389;28;20523;-70
2024/01/13 02:38:15;;;;;;;21.15;14.93;;;;;;;-1.82;100.00;96893.22;5095581;28;20076;-70
2024/01/13 02:40:40;;;;;;;23.13;17.67;;;;;;;-1.82;100.00;96888.94;5080008;28;20031;-70
2024/01/13 02:43:05;;;;;;;24.65;16.08;;;;;;;-1.84;100.00;96892.41;5092313;28;20056;-70
2024/01/13 02:45:31;;;;;;;22.23;16.00;;;;;;;-1.87;100.00;96890.78;5080862;28;20036;-70
2024/01/13 02:48:08;;;;;;;20.40;15.68;;;;;;;-1.87;100.00;96898.53;5075979;28;20496;-70
2024/01/13 02:50:34;;;;;;;21.08;16.73;;;;;;;-1.86;100.00;96889.88;5078131;28;20025;-70
2024/01/13 02:52:59;;;;;;;20.48;15.68;;;;;;;-1.88;100.00;96894.22;5076851;28;20363;-70
2024/01/13 02:55:24;;;;;;;26.10;17.40;;;;;;;-1.76;100.00;96899.09;5075795;28;20741;-70
2024/01/13 02:57:50;;;;;;;21.02;16.77;;;;;;;-1.78;100.00;96903.44;5092319;28;20059;-70
2024/01/13 03:00:17;;;;;;;21.27;17.27;;;;;;;-1.75;100.00;96905.13;5089629;28;20405;-70
2024/01/13 03:02:42;;;;;;;18.52;15.02;;;;;;;-1.79;100.00;96906.91;5077403;28;20799;-70
2024/01/13 03:05:09;;;;;;;21.90;17.30;;;;;;;-1.81;100.00;96913.84;5086615;28;20101;-70
2024/01/13 03:07:34;;;;;;;23.63;17.48;;;;;;;-1.77;100.00;96912.91;5092910;28;20036;-70
2024/01/13 03:10:00;;;;;;;17.25;13.35;;;;;;;-1.76;100.00;96909.44;5096318;28;20030;-70
2024/01/13 03:12:25;;;;;;;21.75;15.13;;;;;;;-1.76;100.00;96912.00;5098278;28;20473;-70
2024/01/13 03:14:50;;;;;;;18.25;13.50;;;;;;;-1.79;100.00;96908.63;5095406;28;20110;-70
2024/01/13 03:17:16;;;;;;;17.35;13.50;;;;;;;-1.79;100.00;96912.09;5082176;28;20053;-70
2024/01/13 03:19:41;;;;;;;17.58;14.05;;;;;;;-1.88;100.00;96914.88;5098823;28;20047;-70
2024/01/13 03:22:06;;;;;;;20.05;14.45;;;;;;;-1.81;100.00;96913.00;5102346;28;20078;-70
2024/01/13 03:24:32;;;;;;;18.35;14.15;;;;;;;-1.75;100.00;96913.72;5095122;28;20492;-70
2024/01/13 03:26:57;;;;;;;18.90;13.20;;;;;;;-1.87;100.00;96911.44;5090738;28;20080;-70
2024/01/13 03:29:22;;;;;;;16.48;13.88;;;;;;;-1.82;100.00;96919.91;5097415;28;20048;-70
2024/01/13 03:31:48;;;;;;;22.95;15.23;;;;;;;-1.85;100.00;96919.13;5085960;28;20027;-70
2024/01/13 03:34:13;;;;;;;20.35;16.90;;;;;;;-1.89;100.00;96915.75;5111389;28;20055;-70
2024/01/13 03:36:38;;;;;;;18.95;15.35;;;;;;;-1.92;100.00;96906.38;5097824;28;20370;-70
2024/01/13 03:39:04;;;;;;;20.15;16.25;;;;;;;-1.92;100.00;96908.94;5078912;28;20036;-70
2024/01/13 03:41:31;;;;;;;21.40;15.55;;;;;;;-1.92;100.00;96908.06;5101585;28;20459;-70
2024/01/13 03:43:57;;;;;;;22.67;17.23;;;;;;;-1.92;100.00;96913.25;5098306;28;20020;-70
2024/01/13 03:46:23;;;;;;;22.23;15.50;;;;;;;-1.95;100.00;96908.16;5097343;28;20031;-70
2024/01/13 03:48:49;;;;;;;16.52;14.52;;;;;;;-2.00;100.00;96899.69;5098064;28;20393;-70
2024/01/13 03:51:16;;;;;;;21.70;16.65;;;;;;;-1.95;100.00;96895.25;5097540;28;20024;-70
2024/01/13 03:53:41;;;;;;;28.48;18.13;;;;;;;-1.94;100.00;96899.53;5083489;28;20115;-70
2024/01/13 03:56:08;;;;;;;18.48;14.85;;;;;;;-1.97;100.00;96897.88;5097474;28;20060;-70
2024/01/13 03:58:34;;;;;;;22.40;16.35;;;;;;;-2.02;100.00;96897.97;5090763;28;20037;-70
2024/01/13 04:01:00;;;;;;;20.45;15.30;;;;;;;-2.05;100.00;96892.03;5078835;28;20063;-70
2024/01/13 04:03:25;;;;;;;21.45;16.23;;;;;;;-2.06;100.00;96891.19;5093501;28;20052;-70
2024/01/13 04:05:50;;;;;;;19.73;16.13;;;;;;;-2.08;100.00;96903.28;5078870;28;20028;-70
2024/01/13 04:08:18;;;;;;;19.98;15.93;;;;;;;-2.07;100.00;96905.00;5085482;28;20612;-70
2024/01/13 04:10:43;;;;;;;19.73;13.32;;;;;;;-2.10;100.00;96899.03;5078911;28;20040;-69
2024/01/13 04:13:17;;;;;;;19.77;14.95;;;;;;;-2.13;100.00;96899.09;5081042;28;20033;-70
2024/01/13 04:15:43;;;;;;;18.52;14.57;;;;;;;-2.17;100.00;96899.19;5079978;28;20032;-70
2024/01/13 04:18:08;;;;;;;19.25;14.23;;;;;;;-2.08;100.00;96894.69;5085809;28;20089;-70
2024/01/13 04:20:33;;;;;;;19.80;15.25;;;;;;;-2.06;100.00;96901.53;5084368;28;20084;-70
2024/01/13 04:22:59;;;;;;;20.25;15.18;;;;;;;-2.06;100.00;96896.34;5109106;28;20052;-70
2024/01/13 04:25:24;;;;;;;18.83;15.43;;;;;;;-2.00;100.00;96899.69;5096363;28;20035;-70
2024/01/13 04:27:52;;;;;;;18.17;14.45;;;;;;;-1.83;100.00;96896.69;5079834;28;20024;-70
2024/01/13 04:30:18;;;;;;;14.82;12.95;;;;;;;-1.88;100.00;96895.06;5076697;28;20032;-70
2024/01/13 04:32:43;;;;;;;16.25;12.48;;;;;;;-1.92;100.00;96893.47;5084989;28;20077;-70
2024/01/13 04:35:09;;;;;;;17.30;13.10;;;;;;;-1.93;100.00;96890.91;5083437;28;20024;-69
2024/01/13 04:37:35;;;;;;;17.15;13.60;;;;;;;-1.91;100.00;96890.00;5084572;28;20028;-70
2024/01/13 04:40:00;;;;;;;17.80;13.15;;;;;;;-1.98;100.00;96891.03;5096200;28;20036;-69
2024/01/13 04:42:26;;;;;;;16.75;13.32;;;;;;;-1.98;100.00;96898.78;5102396;28;20477;-70
2024/01/13 04:44:51;;;;;;;16.65;13.43;;;;;;;-1.94;100.00;96900.38;5101368;28;20024;-70
2024/01/13 04:47:17;;;;;;;15.93;13.07;;;;;;;-1.94;100.00;96904.69;5095839;28;20032;-70
2024/01/13 04:49:42;;;;;;;19.63;14.38;;;;;;;-1.94;100.00;96907.28;5096061;28;20036;-70
2024/01/13 04:52:07;;;;;;;18.10;14.57;;;;;;;-2.02;100.00;96892.81;5096551;28;20516;-70
2024/01/13 04:54:33;;;;;;;16.38;13.60;;;;;;;-2.05;100.00;96903.22;5095668;28;20028;-70
2024/01/13 04:57:00;;;;;;;17.67;13.93;;;;;;;-2.07;100.00;96897.25;5073822;28;20063;-70
2024/01/13 04:59:25;;;;;;;17.02;13.20;;;;;;;-2.07;100.00;96889.50;5088323;28;20396;-70
2024/01/13 05:01:51;;;;;;;17.75;14.13;;;;;;;-2.03;100.00;96890.25;5107780;28;20061;-70
2024/01/13 05:04:16;;;;;;;18.80;13.85;;;;;;;-2.07;100.00;96883.47;5096125;28;20036;-70
2024/01/13 05:06:42;;;;;;;16.48;13.23;;;;;;;-2.15;100.00;96886.22;5095503;28;20221;-69
2024/01/13 05:09:07;;;;;;;13.70;11.88;;;;;;;-2.18;100.00;96884.59;5095253;28;20032;-70
2024/01/13 05:11:33;;;;;;;14.63;11.82;;;;;;;-2.14;100.00;96887.09;5095175;28;20693;-70
2024/01/13 05:13:58;;;;;;;14.60;13.02;;;;;;;-2.17;100.00;96890.56;5094528;28;20027;-70
2024/01/13 05:16:23;;;;;;;15.13;12.35;;;;;;;-2.16;100.00;96887.09;5095307;28;20109;-70
2024/01/13 05:18:49;;;;;;;14.32;11.63;;;;;;;-2.11;100.00;96882.69;5094784;28;20028;-70
2024/01/13 05:21:14;;;;;;;16.90;13.68;;;;;;;-2.05;100.00;96877.41;5112607;28;20127;-70
2024/01/13 05:23:39;;;;;;;18.00;14.20;;;;;;;-2.15;100.00;96875.91;5095754;28;20153;-70
2024/01/13 05:26:05;;;;;;;16.17;12.60;;;;;;;-2.16;100.00;96879.38;5092280;28;20099;-70
2024/01/13 05:28:30;;;;;;;17.30;14.25;;;;;;;-2.14;100.00;96879.34;5092221;28;20032;-69
2024/01/13 05:30:56;;;;;;;17.75;13.25;;;;;;;-2.10;100.00;96874.09;5089316;28;20016;-69
2024/01/13 05:33:21;;;;;;;18.38;13.10;;;;;;;-2.14;100.00;96875.03;5076949;28;20507;-69
2024/01/13 05:35:46;;;;;;;23.20;15.70;;;;;;;-2.16;100.00;96874.22;5084161;28;20040;-70
2024/01/13 05:38:12;;;;;;;25.77;18.27;;;;;;;-2.19;100.00;96880.31;5092419;28;20081;-70
2024/01/13 05:40:40;;;;;;;40.35;21.33;;;;;;;-2.20;100.00;96875.16;5090254;28;20024;-70
2024/01/13 05:43:07;;;;;;;20.73;14.60;;;;;;;-2.17;100.00;96882.84;5087103;28;20169;-70
2024/01/13 05:45:32;;;;;;;21.70;14.95;;;;;;;-2.23;100.00;96873.50;5082045;28;20035;-69
2024/01/13 05:47:58;;;;;;;23.77;15.55;;;;;;;-2.20;100.00;96875.16;5095252;28;20028;-70
2024/01/13 05:50:23;;;;;;;17.75;13.60;;;;;;;-2.18;100.00;96881.13;5076540;28;20442;-70
2024/01/13 05:52:48;;;;;;;15.65;13.00;;;;;;;-2.21;100.00;96866.59;5075028;28;20036;-70
2024/01/13 05:55:14;;;;;;;29.05;17.52;;;;;;;-2.23;100.00;96876.06;5093402;28;20030;-70
2024/01/13 05:57:39;;;;;;;26.38;18.10;;;;;;;-2.22;100.00;96879.50;5087712;28;20077;-69
2024/01/13 06:00:06;;;;;;;25.80;17.38;;;;;;;-2.21;100.00;96871.75;5077473;28;20028;-70
2024/01/13 06:02:31;;;;;;;36.22;23.45;;;;;;;-2.24;100.00;96874.38;5075231;28;20083;-69
2024/01/13 06:04:57;;;;;;;18.40;13.60;;;;;;;-2.27;100.00;96866.72;5095329;28;20027;-70
2024/01/13 06:07:22;;;;;;;26.30;19.90;;;;;;;-2.24;100.00;96871.78;5065283;28;20077;-70
2024/01/13 06:09:47;;;;;;;20.38;14.50;;;;;;;-2.06;100.00;96870.53;5087176;28;20055;-70
2024/01/13 06:12:13;;;;;;;19.48;13.38;;;;;;;-2.12;100.00;96867.25;5096525;28;20024;-70
2024/01/13 06:14:40;;;;;;;25.90;17.80;;;;;;;-2.14;100.00;96869.84;5096923;28;20027;-69
2024/01/13 06:17:06;;;;;;;20.00;15.13;;;;;;;-2.16;100.00;96874.22;5082672;28;20082;-69
2024/01/13 06:19:31;;;;;;;25.90;18.92;;;;;;;-2.17;100.00;96867.34;5089159;28;20024;-70
2024/01/13 06:21:56;;;;;;;23.08;16.40;;;;;;;-2.21;100.00;96876.06;5095018;28;20084;-70
2024/01/13 06:24:22;;;;;;;32.63;22.80;;;;;;;-2.21;100.00;96876.06;5078128;28;20083;-70
2024/01/13 06:26:47;;;;;;;36.33;21.90;;;;;;;-2.20;100.00;96880.31;5075738;28;20400;-70
2024/01/13 06:29:12;;;;;;;85.50;47.40;;;;;;;-2.23;100.00;96875.25;5090619;28;20108;-69
2024/01/13 06:31:38;;;;;;;81.57;44.35;;;;;;;-2.23;100.00;96885.56;5073483;28;20028;-69
2024/01/13 06:34:03;;;;;;;35.80;21.85;;;;;;;-2.24;100.00;96881.28;5072077;28;20040;-69
2024/01/13 06:36:29;;;;;;;31.08;19.85;;;;;;;-2.22;100.00;96885.50;5083269;28;20047;-69
2024/01/13 06:38:54;;;;;;;28.05;19.65;;;;;;;-2.19;100.00;96882.03;5096935;28;20553;-69
2024/01/13 06:41:20;;;;;;;26.00;17.58;;;;;;;-2.21;100.00;96878.63;5090234;28;20029;-69
2024/01/13 06:43:45;;;;;;;20.55;15.90;;;;;;;-2.26;100.00;96878.72;5086862;28;20063;-70
2024/01/13 06:46:11;;;;;;;16.73;13.98;;;;;;;-2.32;100.00;96877.16;5080862;28;20020;-69
2024/01/13 06:48:37;;;;;;;26.55;18.30;;;;;;;-2.34;100.00;96872.91;5085625;28;20032;-70
2024/01/13 06:51:02;;;;;;;22.67;15.82;;;;;;;-2.39;100.00;96867.00;5080818;28;20032;-69
2024/01/13 06:53:27;;;;;;;22.08;17.02;;;;;;;-2.32;100.00;96872.00;5093901;28;20043;-69
2024/01/13 06:55:53;;;;;;;36.53;29.17;;;;;;;-2.32;100.00;96874.56;5083046;28;20088;-70
2024/01/13 06:58:18;;;;;;;28.63;21.17;;;;;;;-2.18;100.00;96868.22;5089922;28;20028;-69
2024/01/13 07:00:44;;;;;;;32.33;24.52;;;;;;;-2.23;100.00;96864.91;5089008;28;20032;-69
2024/01/13 07:03:09;;;;;;;29.40;21.48;;;;;;;-2.20;100.00;96875.16;5090489;28;20072;-69
2024/01/13 07:05:34;;;;;;;18.48;15.73;;;;;;;-2.26;100.00;96870.97;5092131;28;20577;-70
2024/01/13 07:08:00;;;;;;;14.43;11.82;;;;;;;-2.31;100.00;96859.94;5083334;28;20015;-70
2024/01/13 07:10:28;;;;;;;16.02;13.20;;;;;;;-2.31;100.00;96862.50;5093997;28;20033;-70
2024/01/13 07:12:54;;;;;;;43.97;35.15;;;;;;;-2.37;100.00;96867.81;5083536;28;20032;-70
2024/01/13 07:15:19;;;;;;;23.75;17.55;;;;;;;-2.39;100.00;96869.56;5097853;28;20097;-69
2024/01/13 07:17:45;;;;;;;19.88;15.98;;;;;;;-2.34;100.00;96865.16;5097706;28;20055;-70
2024/01/13 07:20:11;;;;;;;20.42;15.23;;;;;;;-2.35;100.00;96866.88;5098179;28;20059;-70
2024/01/13 07:22:36;;;;;;;20.52;15.45;;;;;;;-2.40;100.00;96865.31;5111326;28;20028;-68
2024/01/13 07:25:03;;;;;;;20.55;15.10;;;;;;;-2.43;100.00;96867.91;5096334;28;20431;-68
2024/01/13 07:27:28;;;;;;;17.52;13.98;;;;;;;-2.25;100.00;96869.25;5095401;28;20017;-67
2024/01/13 07:29:54;;;;;;;16.30;13.25;;;;;;;-2.03;100.00;96857.56;5087498;28;20089;-67
2024/01/13 07:32:19;;;;;;;19.23;13.90;;;;;;;-2.17;100.00;96857.91;5105554;28;20020;-67
2024/01/13 07:34:44;;;;;;;15.85;12.70;;;;;;;-2.33;100.00;96859.94;5092909;28;20024;-67
2024/01/13 07:37:10;;;;;;;19.25;12.50;;;;;;;-2.23;100.00;96857.19;5104075;28;20107;-67
2024/01/13 07:39:36;;;;;;;17.05;13.68;;;;;;;-2.25;100.00;96859.78;5070246;28;20035;-67
2024/01/13 07:42:01;;;;;;;15.52;12.90;;;;;;;-2.36;100.00;96854.03;5080660;28;20024;-67
2024/01/13 07:44:27;;;;;;;16.00;14.13;;;;;;;-2.52;100.00;96859.50;5096624;28;20055;-67
2024/01/13 07:46:53;;;;;;;16.25;12.55;;;;;;;-2.33;100.00;96862.53;5097698;28;20119;-67
2024/01/13 07:49:18;;;;;;;17.77;13.30;;;;;;;-2.42;100.00;96865.31;5084768;28;20029;-67
2024/01/13 07:51:49;;;;;;;18.33;14.00;;;;;;;-2.41;100.00;96855.88;5101693;28;20036;-67
2024/01/13 07:54:14;;;;;;;18.17;13.85;;;;;;;-2.43;100.00;96860.19;5089798;28;20106;-67
2024/01/13 07:56:41;;;;;;;20.77;14.32;;;;;;;-2.51;100.00;96860.38;5097718;28;20052;-67
2024/01/13 07:59:07;;;;;;;18.13;12.65;;;;;;;-2.55;100.00;96866.44;5093342;28;20024;-69
2024/01/13 08:01:32;;;;;;;16.95;13.07;;;;;;;-2.46;100.00;96861.94;5081743;28;20039;-69
2024/01/13 08:03:58;;;;;;;17.85;13.07;;;;;;;-2.40;100.00;96866.13;5083343;28;20023;-69
2024/01/13 08:06:23;;;;;;;18.20;12.98;;;;;;;-2.49;100.00;96856.03;5082816;28;20054;-69
2024/01/13 08:08:48;;;;;;;18.10;13.48;;;;;;;-2.51;100.00;96858.63;5092212;28;20051;-69
2024/01/13 08:11:14;;;;;;;23.60;14.20;;;;;;;-2.50;100.00;96862.91;5089440;28;20028;-69
2024/01/13 08:13:39;;;;;;;16.60;13.40;;;;;;;-2.47;100.00;96859.41;5077569;28;20085;-69
2024/01/13 08:16:05;;;;;;;17.48;13.90;;;;;;;-2.40;100.00;96862.72;5088861;28;20020;-69
2024/01/13 08:18:30;;;;;;;20.52;14.93;;;;;;;-2.49;100.00;96862.00;5090152;28;20039;-69
2024/01/13 08:20:55;;;;;;;25.67;18.33;;;;;;;-2.33;100.00;96854.78;5085925;28;20120;-69
2024/01/13 08:23:21;;;;;;;23.85;18.10;;;;;;;-2.32;100.00;96851.34;5078406;28;20028;-69
2024/01/13 08:25:46;;;;;;;20.88;16.52;;;;;;;-2.38;100.00;96853.22;5080617;28;20489;-69
2024/01/13 08:28:11;;;;;;;17.35;13.90;;;;;;;-2.35;100.00;96846.22;5090073;28;20161;-69
2024/01/13 08:30:37;;;;;;;19.50;15.70;;;;;;;-2.37;100.00;96853.16;5062219;28;20028;-69
2024/01/13 08:33:04;;;;;;;19.50;15.52;;;;;;;-2.33;100.00;96841.88;5091095;28;20035;-69
2024/01/13 08:35:30;;;;;;;18.42;14.95;;;;;;;-2.25;100.00;96846.03;5093015;28;20024;-69
2024/01/13 08:37:56;;;;;;;23.55;17.55;;;;;;;-2.17;100.00;96846.72;5095193;28;20641;-69
2024/01/13 08:40:22;;;;;;;21.55;16.15;;;;;;;-2.15;100.00;96837.19;5101641;28;20031;-69
2024/01/13 08:42:49;;;;;;;29.17;21.05;;;;;;;-2.18;100.00;96838.13;5086997;28;20110;-69
2024/01/13 08:45:14;;;;;;;26.02;19.95;;;;;;;-2.25;100.00;96840.88;5091764;28;20090;-69
2024/01/13 08:47:40;;;;;;;23.25;17.95;;;;;;;-2.26;100.00;96841.78;5092769;28;20024;-69
2024/01/13 08:50:06;;;;;;;23.13;18.23;;;;;;;-2.25;100.00;96846.88;5092628;28;20393;-69
2024/01/13 08:52:31;;;;;;;26.20;20.63;;;;;;;-2.15;100.00;96855.25;5094176;28;20024;-69
2024/01/13 08:54:57;;;;;;;20.77;15.98;;;;;;;-2.16;100.00;96850.97;5095828;28;20038;-69
2024/01/13 08:57:22;;;;;;;23.08;16.60;;;;;;;-2.03;100.00;96860.16;5090187;28;20200;-69
2024/01/13 08:59:47;;;;;;;23.52;17.38;;;;;;;-2.11;100.00;96861.22;5093961;28;20028;-69
2024/01/13 09:02:13;;;;;;;27.30;20.02;;;;;;;-2.16;100.00;96854.44;5081466;28;20107;-69
2024/01/13 09:04:38;;;;;;;18.20;14.82;;;;;;;-2.06;100.00;96852.47;5078968;28;20044;-68
2024/01/13 09:07:04;;;;;;;22.88;15.07;;;;;;;-2.08;100.00;96859.41;5083047;28;20047;-69
2024/01/13 09:09:29;;;;;;;21.42;15.15;;;;;;;-2.03;100.00;96852.41;5089367;28;20434;-69
2024/01/13 09:11:55;;;;;;;25.23;17.73;;;;;;;-1.86;100.00;96851.16;5089343;28;20034;-69
2024/01/13 09:14:20;;;;;;;19.60;14.70;;;;;;;-1.88;100.00;96855.47;5086187;28;20432;-69
2024/01/13 09:16:46;;;;;;;20.23;15.55;;;;;;;-1.98;100.00;96851.44;5094896;28;20031;-69
2024/01/13 09:19:11;;;;;;;42.00;33.20;;;;;;;-1.98;100.00;96852.31;5094058;28;20055;-68
2024/01/13 09:21:37;;;;;;;23.88;16.67;;;;;;;-2.05;100.00;96859.34;5101257;28;20066;-69
2024/01/13 09:24:03;;;;;;;18.92;14.55;;;;;;;-1.94;100.00;96856.50;5097810;28;20111;-70
2024/01/13 09:26:29;;;;;;;19.27;15.05;;;;;;;-1.92;100.00;96859.03;5089959;28;20127;-69
2024/01/13 09:28:54;;;;;;;22.55;16.27;;;;;;;-1.81;100.00;96857.06;5091307;28;20400;-70
2024/01/13 09:31:20;;;;;;;27.88;20.48;;;;;;;-1.80;100.00;96853.59;5082550;28;20038;-70
2024/01/13 09:33:45;;;;;;;36.33;26.17;;;;;;;-1.69;100.00;96839.56;5092273;28;20028;-69
2024/01/13 09:36:10;;;;;;;21.48;17.48;;;;;;;-1.66;100.00;96850.66;5088751;28;20028;-69
2024/01/13 09:38:36;;;;;;;23.35;16.00;;;;;;;-1.60;100.00;96850.50;5081766;28;20490;-69
2024/01/13 09:41:01;;;;;;;21.23;17.52;;;;;;;-1.55;100.00;96850.38;5080527;28;20029;-69
2024/01/13 09:44:05;;;;;;;20.33;16.42;;;;;;;-1.60;100.00;96847.91;5088165;28;20036;-69
2024/01/13 09:46:31;;;;;;;23.40;18.45;;;;;;;-1.60;100.00;96847.91;5062671;28;20115;-69
2024/01/13 09:48:58;;;;;;;20.90;15.55;;;;;;;-1.44;100.00;96852.69;5071332;28;20064;-69
2024/01/13 09:51:24;;;;;;;20.52;15.25;;;;;;;-1.45;100.00;96854.41;5072726;28;20059;-69
2024/01/13 09:53:57;;;;;;;27.42;20.42;;;;;;;-1.40;100.00;96862.06;5078207;28;20074;-69
2024/01/13 09:56:32;;;;;;;21.55;18.33;;;;;;;-1.31;100.00;96860.97;5081865;28;20461;-69
2024/01/13 09:58:58;;;;;;;21.25;18.13;;;;;;;-1.32;100.00;96859.28;5083189;28;20039;-69
2024/01/13 10:01:26;;;;;;;21.25;17.40;;;;;;;-1.29;100.00;96859.19;5079513;28;20028;-69
2024/01/13 10:03:51;;;;;;;22.52;18.40;;;;;;;-1.37;100.00;96854.22;5080813;28;20035;-69
2024/01/13 10:06:18;;;;;;;20.30;16.67;;;;;;;-1.35;100.00;96854.19;5093419;28;20554;-70
2024/01/13 10:08:43;;;;;;;20.45;16.00;;;;;;;-1.20;100.00;96848.63;5093428;28;20541;-68
2024/01/13 10:11:09;;;;;;;21.77;17.35;;;;;;;-1.25;100.00;96850.47;5094386;28;20107;-69
2024/01/13 10:13:35;;;;;;;20.92;17.45;;;;;;;-1.16;100.00;96842.50;5087808;28;20036;-68
2024/01/13 10:16:02;;;;;;;25.73;19.65;;;;;;;-1.08;100.00;96844.88;5084585;28;20103;-68
2024/01/13 10:18:31;;;;;;;36.40;27.58;;;;;;;-1.02;100.00;96844.69;5085951;28;20036;-68
2024/01/13 10:20:56;;;;;;;34.78;24.48;;;;;;;-1.10;100.00;96838.91;5085030;28;20052;-68
2024/01/13 10:23:24;;;;;;;24.58;19.02;;;;;;;-0.99;100.00;96838.59;5072605;28;20056;-68
2024/01/13 10:25:50;;;;;;;19.77;16.73;;;;;;;-1.22;100.00;96834.88;5094215;28;20435;-67
2024/01/13 10:28:15;;;;;;;22.15;17.20;;;;;;;-1.45;100.00;96838.91;5094529;28;20061;-68
2024/01/13 10:30:41;;;;;;;21.00;17.23;;;;;;;-1.49;100.00;96837.31;5091477;28;20055;-68
2024/01/13 10:33:09;;;;;;;20.42;16.98;;;;;;;-1.48;100.00;96839.00;5087811;28;20016;-68
2024/01/13 10:35:34;;;;;;;21.45;16.40;;;;;;;-1.45;100.00;96833.75;5087318;28;20023;-68
2024/01/13 10:37:59;;;;;;;21.20;15.80;;;;;;;-1.46;100.00;96834.63;5085221;28;20069;-68
2024/01/13 10:40:26;;;;;;;20.00;17.63;;;;;;;-1.33;100.00;96834.34;5090331;28;20023;-69
2024/01/13 10:42:57;;;;;;;21.35;17.17;;;;;;;-1.23;100.00;96829.78;5086191;28;20043;-69
2024/01/13 10:45:24;;;;;;;20.48;15.82;;;;;;;-1.16;100.00;96829.56;5092111;28;20029;-69
2024/01/13 10:47:53;;;;;;;20.73;16.38;;;;;;;-1.13;100.00;96822.63;5093859;28;20024;-69
2024/01/13 10:50:20;;;;;;;31.45;22.10;;;;;;;-1.11;100.00;96821.66;5084611;28;20039;-68
2024/01/13 10:53:07;;;;;;;39.35;28.58;;;;;;;-0.93;100.00;96820.31;5095837;28;20028;-68
2024/01/13 10:55:36;;;;;;;30.15;22.80;;;;;;;-0.91;100.00;96823.72;5084692;28;20038;-69
2024/01/13 10:58:02;;;;;;;22.25;18.33;;;;;;;-0.90;100.00;96824.53;5086402;28;20107;-69
2024/01/13 11:00:30;;;;;;;33.05;24.35;;;;;;;-0.87;100.00;96816.72;5077273;28;20029;-68
2024/01/13 11:02:57;;;;;;;34.28;27.70;;;;;;;-0.80;100.00;96810.47;5074230;28;20024;-69